Time;durP1;ratioP1;P1;durP2;ratioP2;P2;SDS_P1;SDS_P2;PMS_P1;PMS_P2;Temp;Humidity;BMP_temperature;BMP_pressure;BME280_temperature;BME280_humidity;BME280_pressure;Samples;Min_cycle;Max_cycle;Signal;HPM_P1;HPM_P2
2022/04/06 03:00:50;;;;;;;0.32;0.32;;;17.60;44.80;;;;;;5767762;23;45882;-68
2022/04/06 03:03:15;;;;;;;1.08;0.40;;;17.60;44.80;;;;;;4934039;28;45571;-64
2022/04/06 03:05:41;;;;;;;0.57;0.52;;;17.60;44.90;;;;;;4950446;28;45825;-63
2022/04/06 03:08:07;;;;;;;0.47;0.47;;;17.50;44.80;;;;;;4936541;28;46410;-64
2022/04/06 03:10:33;;;;;;;0.47;0.47;;;17.60;44.80;;;;;;4935931;28;45266;-66
2022/04/06 03:12:58;;;;;;;0.50;0.50;;;17.50;44.80;;;;;;4935424;28;45380;-65
2022/04/06 03:15:24;;;;;;;0.40;0.40;;;17.50;44.80;;;;;;4938252;28;45428;-62
2022/04/06 03:17:49;;;;;;;0.70;0.52;;;17.60;44.80;;;;;;4937583;28;45521;-67
2022/04/06 03:20:15;;;;;;;0.32;0.32;;;17.50;44.80;;;;;;4936563;28;45507;-65
2022/04/06 03:22:41;;;;;;;0.32;0.32;;;17.50;44.80;;;;;;4938328;28;45299;-64
2022/04/06 03:25:07;;;;;;;0.45;0.40;;;17.50;44.80;;;;;;4936967;28;45464;-64
2022/04/06 03:27:34;;;;;;;0.38;0.38;;;17.50;44.80;;;;;;4930757;28;45956;-64
2022/04/06 03:30:03;;;;;;;0.50;0.50;;;17.50;44.80;;;;;;4939336;28;45057;-64
2022/04/06 03:32:29;;;;;;;0.82;0.70;;;17.50;44.80;;;;;;4939663;28;45234;-61
2022/04/06 03:34:54;;;;;;;0.40;0.40;;;17.50;44.80;;;;;;4933284;28;45200;-63
2022/04/06 03:37:20;;;;;;;0.50;0.50;;;17.50;44.80;;;;;;4934950;28;44953;-68
2022/04/06 03:39:45;;;;;;;0.40;0.40;;;17.40;44.80;;;;;;4932782;28;45574;-67
2022/04/06 03:42:11;;;;;;;0.40;0.40;;;17.40;44.80;;;;;;4930198;28;45400;-65
2022/04/06 03:44:37;;;;;;;0.38;0.38;;;17.50;44.90;;;;;;4923418;28;45366;-64
2022/04/06 03:47:02;;;;;;;0.50;0.50;;;17.40;44.80;;;;;;4932047;28;45301;-63
2022/04/06 03:49:28;;;;;;;0.40;0.40;;;17.50;44.90;;;;;;4934575;28;45100;-66
2022/04/06 03:51:53;;;;;;;0.57;0.50;;;17.40;44.80;;;;;;4934709;28;45014;-64
2022/04/06 03:54:19;;;;;;;0.55;0.47;;;17.40;44.80;;;;;;4932643;28;45438;-64
2022/04/06 03:56:45;;;;;;;0.55;0.50;;;17.40;44.80;;;;;;4929788;28;45114;-62
2022/04/06 03:59:10;;;;;;;0.70;0.60;;;17.40;44.80;;;;;;4934036;28;46091;-64
2022/04/06 04:01:36;;;;;;;0.68;0.50;;;17.40;44.90;;;;;;4922617;28;45590;-67
2022/04/06 04:04:04;;;;;;;0.40;0.40;;;17.40;44.90;;;;;;4926522;28;45570;-63
2022/04/06 04:06:30;;;;;;;0.68;0.50;;;17.40;44.90;;;;;;4929504;28;45942;-63
2022/04/06 04:08:55;;;;;;;0.60;0.57;;;17.40;44.90;;;;;;4933932;28;45363;-65
2022/04/06 04:11:21;;;;;;;0.47;0.40;;;17.30;44.90;;;;;;4942360;28;44977;-67
2022/04/06 04:13:46;;;;;;;0.43;0.43;;;17.40;45.50;;;;;;4925789;28;45155;-65
2022/04/06 04:16:12;;;;;;;0.50;0.50;;;17.30;44.90;;;;;;4924170;28;48297;-63
2022/04/06 04:18:38;;;;;;;0.47;0.47;;;17.40;44.90;;;;;;4946842;28;45154;-66
2022/04/06 04:23:47;;;;;;;0.60;0.60;;;17.30;44.90;;;;;;4932547;28;45363;-66
2022/04/06 04:26:13;;;;;;;0.52;0.47;;;17.30;44.90;;;;;;4926483;28;45797;-64
2022/04/06 04:28:38;;;;;;;0.73;0.60;;;17.30;44.90;;;;;;4931950;28;45380;-65
2022/04/06 04:31:04;;;;;;;0.43;0.30;;;17.30;44.90;;;;;;4929074;28;44669;-69
2022/04/06 04:33:30;;;;;;;0.43;0.43;;;17.30;44.90;;;;;;4930079;28;44806;-65
2022/04/06 04:35:56;;;;;;;0.70;0.70;;;17.30;44.90;;;;;;4930222;28;46036;-63
2022/04/06 04:38:21;;;;;;;1.00;0.43;;;17.30;44.90;;;;;;4913941;28;45331;-65
2022/04/06 04:40:47;;;;;;;0.40;0.40;;;17.20;44.90;;;;;;4932821;28;45165;-64
2022/04/06 04:43:13;;;;;;;0.60;0.60;;;17.20;44.90;;;;;;4929227;28;45164;-64
2022/04/06 04:45:38;;;;;;;0.60;0.60;;;17.30;45.00;;;;;;4915611;28;45478;-63
2022/04/06 04:48:04;;;;;;;0.47;0.47;;;17.20;44.90;;;;;;4952482;28;45497;-63
2022/04/06 04:50:30;;;;;;;0.50;0.50;;;17.20;44.90;;;;;;4933731;28;44825;-67
2022/04/06 04:52:56;;;;;;;0.60;0.50;;;17.20;45.50;;;;;;4924458;28;45407;-67
2022/04/06 04:55:21;;;;;;;0.40;0.40;;;17.20;44.90;;;;;;4927717;28;45847;-62
2022/04/06 04:57:47;;;;;;;0.40;0.40;;;17.20;44.90;;;;;;4941193;28;45405;-63
2022/04/06 05:00:13;;;;;;;0.50;0.50;;;17.20;44.90;;;;;;4924051;28;45321;-67
2022/04/06 05:02:38;;;;;;;0.40;0.40;;;17.20;44.90;;;;;;4927003;28;44754;-64
2022/04/06 05:05:05;;;;;;;0.43;0.38;;;17.20;44.90;;;;;;4930278;28;47317;-66
2022/04/06 05:07:33;;;;;;;0.57;0.50;;;17.20;44.90;;;;;;4930173;28;45175;-67
2022/04/06 05:09:59;;;;;;;0.40;0.40;;;17.20;44.90;;;;;;4920063;28;45315;-66
2022/04/06 05:12:26;;;;;;;0.63;0.60;;;17.20;44.90;;;;;;4917062;28;45359;-64
2022/04/06 05:14:52;;;;;;;0.40;0.40;;;17.20;45.00;;;;;;4929931;28;46929;-64
2022/04/06 05:17:17;;;;;;;0.50;0.50;;;17.20;44.90;;;;;;4933117;28;45320;-67
2022/04/06 05:19:43;;;;;;;0.40;0.40;;;17.20;45.00;;;;;;4930002;28;45288;-65
2022/04/06 05:22:08;;;;;;;0.38;0.38;;;17.20;44.90;;;;;;4929650;28;45347;-64
2022/04/06 05:24:34;;;;;;;0.63;0.50;;;17.10;45.00;;;;;;4921108;28;45636;-64
2022/04/06 05:27:02;;;;;;;0.40;0.40;;;17.10;45.00;;;;;;4935707;28;45279;-67
2022/04/06 05:29:27;;;;;;;0.50;0.50;;;17.10;45.00;;;;;;4910222;28;45585;-66
2022/04/06 05:31:53;;;;;;;0.35;0.35;;;17.10;45.00;;;;;;4930445;28;45452;-64
2022/04/06 05:34:18;;;;;;;0.30;0.30;;;17.10;45.60;;;;;;4934560;28;45507;-64
2022/04/06 05:36:44;;;;;;;0.60;0.43;;;17.10;45.00;;;;;;4935662;28;45406;-63
2022/04/06 05:39:10;;;;;;;1.15;0.60;;;17.10;45.00;;;;;;4934565;28;45740;-68
2022/04/06 05:41:36;;;;;;;0.43;0.43;;;17.10;45.00;;;;;;4936051;28;45210;-65
2022/04/06 05:44:02;;;;;;;0.60;0.60;;;17.10;44.90;;;;;;4932202;28;46213;-64
2022/04/06 05:46:27;;;;;;;0.50;0.50;;;17.10;45.00;;;;;;4927646;28;45256;-64
2022/04/06 05:48:53;;;;;;;0.50;0.40;;;17.10;45.00;;;;;;4936903;28;45284;-66
2022/04/06 05:51:18;;;;;;;0.40;0.40;;;17.10;45.00;;;;;;4929912;28;44856;-64
2022/04/06 05:53:44;;;;;;;0.50;0.50;;;17.10;45.00;;;;;;4934866;28;45284;-63
2022/04/06 05:56:09;;;;;;;0.50;0.50;;;17.10;45.00;;;;;;4944968;28;45366;-66
2022/04/06 05:58:35;;;;;;;0.52;0.45;;;17.10;45.00;;;;;;4940339;28;44758;-67
2022/04/06 06:01:01;;;;;;;0.50;0.50;;;17.10;45.00;;;;;;4932753;28;44852;-62
2022/04/06 06:03:26;;;;;;;0.75;0.50;;;17.10;45.00;;;;;;4937184;28;47565;-63
2022/04/06 06:05:52;;;;;;;0.50;0.47;;;17.10;45.00;;;;;;4927673;28;45422;-66
2022/04/06 06:08:17;;;;;;;0.60;0.60;;;17.10;45.00;;;;;;4938133;28;45468;-63
2022/04/06 06:10:43;;;;;;;0.60;0.60;;;17.10;45.00;;;;;;4939207;28;45279;-63
2022/04/06 06:13:08;;;;;;;0.65;0.50;;;17.10;45.00;;;;;;4939155;28;46337;-62
2022/04/06 06:15:34;;;;;;;0.75;0.50;;;17.10;44.90;;;;;;4929481;28;45196;-63
2022/04/06 06:18:00;;;;;;;0.40;0.40;;;17.20;44.90;;;;;;4937667;28;45441;-62
2022/04/06 06:20:27;;;;;;;0.47;0.47;;;17.30;44.80;;;;;;4935342;28;45423;-63
2022/04/06 06:22:53;;;;;;;0.40;0.40;;;17.30;44.70;;;;;;4932492;28;46092;-65
2022/04/06 06:25:18;;;;;;;0.40;0.40;;;17.40;44.60;;;;;;4940934;28;45840;-62
2022/04/06 06:27:46;;;;;;;0.63;0.43;;;17.50;44.50;;;;;;4926504;28;45024;-64
2022/04/06 06:30:12;;;;;;;0.50;0.50;;;17.60;44.40;;;;;;4937136;28;45235;-64
2022/04/06 06:32:38;;;;;;;0.47;0.47;;;17.70;44.40;;;;;;4937388;28;46245;-63
2022/04/06 06:35:04;;;;;;;0.70;0.60;;;17.80;44.30;;;;;;4927281;28;45281;-65
2022/04/06 06:37:29;;;;;;;0.45;0.38;;;17.90;44.20;;;;;;4938919;28;44755;-69
2022/04/06 06:39:55;;;;;;;0.60;0.60;;;18.00;44.10;;;;;;4939317;28;45531;-66
2022/04/06 06:42:21;;;;;;;0.40;0.40;;;18.00;44.00;;;;;;4924313;28;46156;-64
2022/04/06 06:44:47;;;;;;;0.50;0.50;;;18.20;44.00;;;;;;4936976;28;45228;-62
2022/04/06 06:47:12;;;;;;;0.30;0.30;;;18.20;43.80;;;;;;4937474;28;44770;-66
2022/04/06 06:49:45;;;;;;;0.40;0.40;;;18.30;43.80;;;;;;4940052;28;45504;-63
2022/04/06 06:52:11;;;;;;;0.50;0.50;;;18.40;43.70;;;;;;4927500;28;45899;-68
2022/04/06 06:54:37;;;;;;;1.25;0.30;;;18.50;43.60;;;;;;4939592;28;45445;-63
2022/04/06 06:57:03;;;;;;;0.35;0.30;;;18.60;43.60;;;;;;4936617;28;45499;-63
2022/04/06 06:59:28;;;;;;;0.30;0.30;;;18.70;43.50;;;;;;4941494;28;45315;-64
2022/04/06 07:01:54;;;;;;;0.45;0.40;;;18.80;43.40;;;;;;4930444;28;46185;-62
2022/04/06 07:04:22;;;;;;;0.40;0.30;;;18.90;43.40;;;;;;4938501;28;45199;-62
2022/04/06 07:06:49;;;;;;;0.45;0.40;;;18.90;43.30;;;;;;4939126;28;45032;-61
2022/04/06 07:09:15;;;;;;;0.30;0.30;;;19.00;43.20;;;;;;4939316;28;45321;-60
2022/04/06 07:11:41;;;;;;;0.40;0.35;;;19.10;43.20;;;;;;4926972;28;45995;-58
2022/04/06 07:14:06;;;;;;;0.30;0.30;;;19.20;43.20;;;;;;4937246;28;44996;-63
2022/04/06 07:16:32;;;;;;;1.45;0.50;;;19.30;43.10;;;;;;4933834;28;45684;-64
2022/04/06 07:18:58;;;;;;;0.50;0.40;;;19.40;43.00;;;;;;4936604;28;45311;-66
2022/04/06 07:21:23;;;;;;;0.30;0.30;;;19.50;43.00;;;;;;4937357;28;46237;-65
2022/04/06 07:23:49;;;;;;;0.22;0.22;;;19.60;43.00;;;;;;4937807;28;44969;-62
2022/04/06 07:26:16;;;;;;;0.30;0.30;;;19.60;42.90;;;;;;4936379;28;45009;-62
2022/04/06 07:28:44;;;;;;;0.30;0.30;;;19.70;42.80;;;;;;4937144;28;45588;-61
2022/04/06 07:31:13;;;;;;;0.30;0.30;;;19.80;42.80;;;;;;4924306;28;46121;-66
2022/04/06 07:33:40;;;;;;;0.38;0.38;;;19.90;42.80;;;;;;4938006;28;45210;-61
2022/04/06 07:36:06;;;;;;;0.30;0.30;;;19.90;42.60;;;;;;4936334;28;45550;-62
2022/04/06 07:38:31;;;;;;;0.22;0.22;;;20.00;42.60;;;;;;4929303;28;45541;-66
2022/04/06 07:40:57;;;;;;;0.65;0.35;;;20.10;42.60;;;;;;4927859;28;45353;-66
2022/04/06 07:43:23;;;;;;;0.32;0.30;;;20.20;42.50;;;;;;4937359;28;45427;-65
2022/04/06 07:45:49;;;;;;;0.30;0.20;;;20.30;42.50;;;;;;4938226;28;45333;-67
2022/04/06 07:48:14;;;;;;;0.40;0.40;;;20.30;42.40;;;;;;4918701;28;44803;-64
2022/04/06 07:50:40;;;;;;;0.30;0.30;;;20.40;42.40;;;;;;4930404;28;46080;-66
2022/04/06 07:53:06;;;;;;;0.20;0.20;;;20.50;42.30;;;;;;4938503;28;45613;-65
2022/04/06 07:55:31;;;;;;;0.20;0.20;;;20.50;42.20;;;;;;4939185;28;45217;-62
2022/04/06 07:57:57;;;;;;;0.32;0.32;;;20.60;42.20;;;;;;4937130;28;45313;-65
2022/04/06 08:00:22;;;;;;;0.35;0.28;;;20.70;42.20;;;;;;4936238;28;46160;-63
2022/04/06 08:02:49;;;;;;;0.20;0.20;;;20.80;42.20;;;;;;4944139;28;45221;-65
2022/04/06 08:05:15;;;;;;;0.30;0.20;;;20.80;42.10;;;;;;4939298;28;45211;-63
2022/04/06 08:07:43;;;;;;;0.20;0.20;;;20.90;42.10;;;;;;4938157;28;45378;-65
2022/04/06 08:10:09;;;;;;;0.30;0.30;;;21.00;42.00;;;;;;4930431;28;46984;-66
2022/04/06 08:12:35;;;;;;;0.20;0.20;;;21.00;42.00;;;;;;4936699;28;45086;-65
2022/04/06 08:15:02;;;;;;;0.30;0.30;;;21.10;41.90;;;;;;4940048;28;45125;-63
2022/04/06 08:17:30;;;;;;;0.30;0.30;;;21.20;41.80;;;;;;4936227;28;45352;-66
2022/04/06 08:19:55;;;;;;;0.70;0.20;;;21.20;41.80;;;;;;4920695;28;46087;-67
2022/04/06 08:22:24;;;;;;;0.28;0.28;;;21.30;41.70;;;;;;4937397;28;45012;-66
2022/04/06 08:24:49;;;;;;;0.30;0.30;;;21.30;41.60;;;;;;4938071;28;45417;-65
2022/04/06 08:27:24;;;;;;;0.30;0.30;;;21.40;41.70;;;;;;4919182;28;45291;-63
2022/04/06 08:29:50;;;;;;;0.30;0.30;;;21.50;41.50;;;;;;4938273;28;45242;-63
2022/04/06 08:32:15;;;;;;;0.25;0.25;;;21.60;41.60;;;;;;4937744;28;45262;-63
2022/04/06 08:34:41;;;;;;;0.20;0.20;;;21.60;41.50;;;;;;4938697;28;45477;-63
2022/04/06 08:37:34;;;;;;;0.47;0.20;;;21.70;41.40;;;;;;4934168;28;45376;-66
2022/04/06 08:40:00;;;;;;;;;;;21.80;41.20;;;;;;4928821;28;45479;-64
2022/04/06 08:42:32;;;;;;;0.28;0.20;;;21.90;41.10;;;;;;4928025;28;44630;-63
2022/04/06 08:45:02;;;;;;;0.20;0.20;;;22.00;41.20;;;;;;4938310;28;45123;-64
2022/04/06 08:47:33;;;;;;;0.25;0.20;;;22.00;41.20;;;;;;4932089;28;44844;-64
2022/04/06 08:49:59;;;;;;;0.30;0.20;;;22.10;41.10;;;;;;4933367;28;45461;-63
2022/04/06 08:52:25;;;;;;;0.20;0.20;;;22.10;41.10;;;;;;4934095;28;45230;-65
2022/04/06 08:54:51;;;;;;;0.20;0.20;;;22.20;41.00;;;;;;4938850;28;45112;-64
2022/04/06 08:57:17;;;;;;;0.10;0.10;;;22.30;41.60;;;;;;4940785;28;44846;-62
2022/04/06 08:59:43;;;;;;;0.10;0.10;;;22.40;41.00;;;;;;4935123;28;46754;-61
2022/04/06 09:02:08;;;;;;;0.20;0.20;;;22.40;40.90;;;;;;4930712;28;44799;-63
2022/04/06 09:04:35;;;;;;;0.10;0.10;;;22.50;40.90;;;;;;4944713;28;44752;-62
2022/04/06 09:07:08;;;;;;;0.17;0.17;;;22.50;40.80;;;;;;4939825;28;45277;-62
2022/04/06 09:09:34;;;;;;;0.55;0.35;;;22.60;40.70;;;;;;4930569;28;46489;-65
2022/04/06 09:11:59;;;;;;;0.28;0.20;;;22.60;40.70;;;;;;4919848;28;45359;-67
2022/04/06 09:14:32;;;;;;;0.17;0.17;;;22.70;40.70;;;;;;4917285;28;45030;-64
2022/04/06 09:17:05;;;;;;;0.20;0.20;;;22.70;40.50;;;;;;4937512;28;45383;-66
2022/04/06 09:19:30;;;;;;;0.20;0.20;;;22.80;40.50;;;;;;4939967;28;45213;-67
2022/04/06 09:21:56;;;;;;;0.20;0.20;;;22.90;40.60;;;;;;4930250;28;45249;-64
2022/04/06 09:24:23;;;;;;;0.10;0.10;;;22.90;40.50;;;;;;4934989;28;45797;-64
2022/04/06 09:26:59;;;;;;;0.30;0.20;;;23.00;40.50;;;;;;4903621;28;45543;-66
2022/04/06 09:29:25;;;;;;;0.20;0.20;;;23.00;40.30;;;;;;4931784;28;46478;-67
2022/04/06 09:31:51;;;;;;;0.10;0.10;;;23.10;40.40;;;;;;4937580;28;45117;-64
2022/04/06 09:34:19;;;;;;;0.20;0.20;;;23.10;40.40;;;;;;4939469;28;44748;-64
2022/04/06 09:36:45;;;;;;;0.25;0.17;;;23.20;40.40;;;;;;4923247;28;45185;-65
2022/04/06 09:39:10;;;;;;;0.10;0.10;;;23.20;40.30;;;;;;4937535;28;46149;-64
2022/04/06 09:41:59;;;;;;;0.20;0.20;;;23.30;40.30;;;;;;4934559;28;45422;-66
2022/04/06 09:50:20;;;;;;;0.20;0.20;;;23.40;40.00;;;;;;4933978;28;44962;-67
2022/04/06 09:52:46;;;;;;;0.10;0.10;;;23.40;40.50;;;;;;4930465;28;45452;-64
2022/04/06 09:55:15;;;;;;;0.20;0.17;;;23.50;40.10;;;;;;4935164;28;44631;-60
2022/04/06 09:57:47;;;;;;;0.10;0.10;;;23.50;40.00;;;;;;4940144;28;45213;-67
2022/04/06 10:00:20;;;;;;;0.55;0.20;;;23.50;40.00;;;;;;4938745;28;45290;-67
2022/04/06 10:02:48;;;;;;;0.30;0.30;;;23.60;40.00;;;;;;4931994;28;45060;-63
2022/04/06 10:05:15;;;;;;;2.15;0.20;;;23.60;40.00;;;;;;4930334;28;46261;-64
2022/04/06 10:07:41;;;;;;;0.22;0.20;;;23.60;40.00;;;;;;4951947;28;45209;-63
2022/04/06 10:10:06;;;;;;;0.10;0.10;;;23.60;40.00;;;;;;4944271;28;46042;-65
2022/04/06 10:12:32;;;;;;;0.10;0.10;;;23.70;39.90;;;;;;4937700;28;44888;-65
2022/04/06 10:14:59;;;;;;;0.20;0.20;;;23.70;39.90;;;;;;4926506;28;45015;-63
2022/04/06 10:17:25;;;;;;;0.17;0.17;;;23.80;39.90;;;;;;4939701;28;45304;-64
2022/04/06 10:19:53;;;;;;;0.20;0.10;;;23.80;39.90;;;;;;4919025;28;46018;-61
2022/04/06 10:22:22;;;;;;;0.10;0.10;;;23.80;39.90;;;;;;4933014;28;45367;-63
2022/04/06 10:24:51;;;;;;;0.10;0.10;;;23.80;39.80;;;;;;4923536;28;46192;-68
2022/04/06 10:27:29;;;;;;;2.50;0.30;;;23.80;39.80;;;;;;4939818;28;45463;-64
2022/04/06 10:30:17;;;;;;;0.30;0.30;;;23.90;39.60;;;;;;4917766;28;45552;-65
2022/04/06 10:32:48;;;;;;;0.20;0.10;;;23.90;39.60;;;;;;4934843;28;45271;-66
2022/04/06 10:35:21;;;;;;;0.43;0.10;;;24.00;39.70;;;;;;4933981;28;45286;-63
2022/04/06 10:38:07;;;;;;;;;;;24.00;39.50;;;;;;4936026;28;45200;-65
2022/04/06 10:40:42;;;;;;;;;;;24.00;39.40;;;;;;4922789;28;46075;-66
2022/04/06 10:43:27;;;;;;;;;;;24.10;39.40;;;;;;4948712;28;45196;-63
2022/04/06 10:45:53;;;;;;;;;;;24.00;39.30;;;;;;4942807;28;45517;-63
2022/04/06 10:48:18;;;;;;;;;;;24.10;39.30;;;;;;4942374;28;45803;-63
2022/04/06 10:50:44;;;;;;;;;;;24.10;39.40;;;;;;4937828;28;45358;-64
2022/04/06 10:53:19;;;;;;;;;;;24.10;39.30;;;;;;4935720;28;45039;-65
2022/04/06 10:56:03;;;;;;;;;;;24.10;39.30;;;;;;4941399;28;45291;-63
2022/04/06 10:58:48;;;;;;;;;;;24.10;39.30;;;;;;4939897;28;45112;-63
2022/04/06 11:01:17;;;;;;;;;;;24.20;39.30;;;;;;4932228;28;46054;-65
2022/04/06 11:04:04;;;;;;;;;;;24.20;39.20;;;;;;4938132;28;44600;-63
2022/04/06 11:06:48;;;;;;;;;;;24.20;39.20;;;;;;4941965;28;45469;-61
2022/04/06 11:12:12;;;;;;;;;;;24.30;39.30;;;;;;4952230;28;45988;-63
2022/04/06 11:14:37;;;;;;;;;;;24.30;39.30;;;;;;4939392;28;45162;-62
2022/04/06 11:17:23;;;;;;;;;;;24.30;39.30;;;;;;4937592;28;45157;-64
2022/04/06 11:19:49;;;;;;;;;;;24.40;39.80;;;;;;4937600;28;44702;-60
2022/04/06 11:22:15;;;;;;;;;;;24.40;39.30;;;;;;4939098;28;46103;-66
2022/04/06 11:24:40;;;;;;;;;;;24.40;39.30;;;;;;4946931;28;45254;-63
2022/04/06 11:27:06;;;;;;;;;;;24.40;39.20;;;;;;4941723;28;45267;-68
2022/04/06 11:29:31;;;;;;;;;;;24.40;39.20;;;;;;4943820;28;45347;-63
2022/04/06 11:32:02;;;;;;;;;;;24.40;39.30;;;;;;4928920;28;45864;-63
2022/04/06 11:34:28;;;;;;;;;;;24.40;39.30;;;;;;4936595;28;44719;-67
2022/04/06 11:36:56;;;;;;;;;;;24.50;39.30;;;;;;4937979;28;45179;-60
2022/04/06 11:39:21;;;;;;;;;;;24.50;39.30;;;;;;4936102;28;45267;-59
2022/04/06 11:41:47;;;;;;;;;;;24.50;39.30;;;;;;4954497;28;45935;-63
2022/04/06 11:44:20;;;;;;;;;;;24.50;39.20;;;;;;4954476;28;45286;-63
2022/04/06 11:46:46;;;;;;;;;;;24.50;39.20;;;;;;4934489;28;44764;-65
2022/04/06 11:49:11;;;;;;;;;;;24.50;39.40;;;;;;4944449;28;44665;-62
2022/04/06 11:51:37;;;;;;;;;;;24.60;39.30;;;;;;4938919;28;45438;-64
2022/04/06 11:54:03;;;;;;;;;;;24.60;39.30;;;;;;4940591;28;44832;-64
2022/04/06 11:56:28;;;;;;;;;;;24.50;39.30;;;;;;4940254;28;45244;-62
2022/04/06 11:58:57;;;;;;;;;;;24.50;39.30;;;;;;4929913;28;45489;-64
2022/04/06 12:01:28;;;;;;;;;;;24.60;39.30;;;;;;4950586;28;46148;-66
2022/04/06 12:03:53;;;;;;;;;;;24.60;39.30;;;;;;4941471;28;45341;-64
2022/04/06 12:06:19;;;;;;;;;;;24.60;39.40;;;;;;4942191;28;44884;-63
2022/04/06 12:08:45;;;;;;;;;;;24.70;39.30;;;;;;4944870;28;45287;-64
2022/04/06 12:11:10;;;;;;;;;;;24.60;39.30;;;;;;4957273;28;45438;-63
2022/04/06 12:13:37;;;;;;;;;;;24.70;39.40;;;;;;4946148;28;45284;-64
2022/04/06 12:16:03;;;;;;;;;;;24.70;39.40;;;;;;4937498;28;45088;-64
2022/04/06 12:18:28;;;;;;;;;;;24.70;39.40;;;;;;4934298;28;45300;-64
2022/04/06 12:20:54;;;;;;;;;;;24.70;39.50;;;;;;4942722;28;45212;-63
2022/04/06 12:23:20;;;;;;;;;;;24.70;39.50;;;;;;4925750;28;45266;-63
2022/04/06 12:25:46;;;;;;;;;;;24.70;39.40;;;;;;4938854;28;45403;-62
2022/04/06 12:28:11;;;;;;;;;;;24.70;39.40;;;;;;4942310;28;45561;-63
2022/04/06 12:30:54;;;;;;;;;;;24.70;39.50;;;;;;4935168;28;45390;-63
2022/04/06 12:33:31;;;;;;;;;;;24.80;39.50;;;;;;4943853;28;45355;-64
2022/04/06 12:36:04;;;;;;;;;;;24.80;39.50;;;;;;4942071;28;45278;-64
2022/04/06 12:38:29;;;;;;;;;;;24.80;39.60;;;;;;4943728;28;46430;-63
2022/04/06 12:41:04;;;;;;;;;;;24.80;39.50;;;;;;4945843;28;45990;-65
2022/04/06 12:43:30;;;;;;;;;;;24.80;39.50;;;;;;4939552;28;45055;-66
2022/04/06 12:45:55;;;;;;;;;;;24.80;39.50;;;;;;4939426;28;45139;-60
2022/04/06 12:48:21;;;;;;;;;;;24.80;39.50;;;;;;4937830;28;45295;-64
2022/04/06 12:50:46;;;;;;;;;;;24.80;39.50;;;;;;4941983;28;46083;-62
2022/04/06 12:53:14;;;;;;;;;;;24.80;39.50;;;;;;4940636;28;45436;-63
2022/04/06 12:55:40;;;;;;;;;;;24.80;39.50;;;;;;4938154;28;45216;-62
2022/04/06 12:58:32;;;;;;;;;;;24.80;39.50;;;;;;4937524;28;45336;-64
2022/04/06 13:00:58;;;;;;;;;;;24.80;39.50;;;;;;4921763;28;46430;-64
2022/04/06 13:03:25;;;;;;;;;;;24.80;39.60;;;;;;4943480;28;45200;-63
2022/04/06 13:05:51;;;;;;;;;;;24.90;39.60;;;;;;4935107;28;45283;-63
2022/04/06 13:08:22;;;;;;;;;;;24.80;39.60;;;;;;4932989;28;44725;-61
2022/04/06 13:10:47;;;;;;;;;;;24.90;39.70;;;;;;4931024;28;47497;-63
2022/04/06 13:13:13;;;;;;;;;;;24.90;39.60;;;;;;4936986;28;45281;-66
2022/04/06 13:15:38;;;;;;;;;;;24.90;39.60;;;;;;4932997;28;45174;-66
2022/04/06 13:18:06;;;;;;;;;;;24.90;39.60;;;;;;4938095;28;45275;-63
2022/04/06 13:20:31;;;;;;;;;;;24.90;39.60;;;;;;4938747;28;46046;-66
2022/04/06 13:22:57;;;;;;;;;;;24.90;39.70;;;;;;4927391;28;44912;-62
2022/04/06 13:25:22;;;;;;;;;;;24.90;39.70;;;;;;4932839;28;45262;-63
2022/04/06 13:27:48;;;;;;;;;;;24.90;39.70;;;;;;4938763;28;45781;-63
2022/04/06 13:30:14;;;;;;;;;;;24.90;39.60;;;;;;4941091;28;46131;-63
2022/04/06 13:32:43;;;;;;;;;;;24.90;39.60;;;;;;4941189;28;45902;-60
2022/04/06 13:35:08;;;;;;;;;;;24.90;39.60;;;;;;4937184;28;45348;-66
2022/04/06 13:37:34;;;;;;;;;;;24.90;39.60;;;;;;4948987;28;45404;-61
2022/04/06 13:40:00;;;;;;;;;;;24.90;39.70;;;;;;4944451;28;45398;-65
2022/04/06 13:42:25;;;;;;;;;;;25.00;39.70;;;;;;4934026;28;44697;-63
2022/04/06 13:44:51;;;;;;;;;;;25.00;39.70;;;;;;4946220;28;45152;-62
2022/04/06 13:47:16;;;;;;;;;;;25.00;39.70;;;;;;4937295;28;45174;-62
2022/04/06 13:49:42;;;;;;;;;;;25.00;39.70;;;;;;4940279;28;45307;-64
2022/04/06 13:52:07;;;;;;;;;;;25.00;39.70;;;;;;4936074;28;44850;-62
2022/04/06 13:54:33;;;;;;;;;;;25.00;39.70;;;;;;4937853;28;45029;-62
2022/04/06 13:56:59;;;;;;;;;;;25.00;39.70;;;;;;4940156;28;45248;-63
2022/04/06 13:59:24;;;;;;;;;;;25.00;39.70;;;;;;4932306;28;46189;-62
2022/04/06 14:01:50;;;;;;;;;;;25.00;39.70;;;;;;4931639;28;45505;-63
2022/04/06 14:04:16;;;;;;;;;;;25.00;39.80;;;;;;4942780;28;45176;-65
2022/04/06 14:06:41;;;;;;;;;;;25.00;39.70;;;;;;4943529;28;45192;-63
2022/04/06 14:09:07;;;;;;;;;;;25.00;39.80;;;;;;4941546;28;46108;-59
2022/04/06 14:11:33;;;;;;;;;;;25.00;39.70;;;;;;4940852;28;45309;-63
2022/04/06 14:13:59;;;;;;;;;;;25.00;39.80;;;;;;4956877;28;45159;-62
2022/04/06 14:16:24;;;;;;;;;;;25.00;39.80;;;;;;4945378;28;45128;-63
2022/04/06 14:18:50;;;;;;;;;;;25.00;39.80;;;;;;4943191;28;45230;-62
2022/04/06 14:21:17;;;;;;;0.10;0.10;;;25.10;39.80;;;;;;4934462;28;45139;-69
2022/04/06 14:23:43;;;;;;;0.00;0.00;;;25.10;39.90;;;;;;4931232;28;45203;-65
2022/04/06 14:26:09;;;;;;;0.52;0.10;;;25.10;39.90;;;;;;4944061;28;45236;-65
2022/04/06 14:28:34;;;;;;;0.22;0.10;;;25.10;39.90;;;;;;4928279;28;45278;-63
2022/04/06 14:31:00;;;;;;;0.10;0.10;;;25.10;39.90;;;;;;4934635;28;45181;-65
2022/04/06 14:33:26;;;;;;;0.40;0.17;;;25.10;39.90;;;;;;4947711;28;45129;-62
2022/04/06 14:35:51;;;;;;;0.38;0.10;;;25.10;39.90;;;;;;4934003;28;45359;-64
2022/04/06 14:38:18;;;;;;;0.10;0.10;;;25.10;39.90;;;;;;4924107;28;44853;-63
2022/04/06 14:40:47;;;;;;;0.20;0.20;;;25.10;40.60;;;;;;4952622;28;44756;-62
2022/04/06 14:43:21;;;;;;;0.13;0.13;;;25.10;40.00;;;;;;4938470;28;45192;-64
2022/04/06 14:45:48;;;;;;;0.13;0.10;;;25.10;40.00;;;;;;4942146;28;45465;-63
2022/04/06 14:48:16;;;;;;;0.10;0.10;;;25.10;40.00;;;;;;4937064;28;45297;-64
2022/04/06 14:50:41;;;;;;;0.10;0.10;;;25.20;40.00;;;;;;4936064;28;45329;-66
2022/04/06 14:53:07;;;;;;;1.58;0.20;;;25.10;40.00;;;;;;4943399;28;45273;-64
2022/04/06 14:55:34;;;;;;;0.10;0.10;;;25.10;40.00;;;;;;4918623;28;45545;-64
2022/04/06 14:58:00;;;;;;;0.45;0.30;;;25.20;40.00;;;;;;4931528;28;46866;-63
2022/04/06 15:00:28;;;;;;;0.10;0.10;;;25.10;40.00;;;;;;4929683;28;45327;-64
2022/04/06 15:02:56;;;;;;;0.28;0.20;;;25.20;40.10;;;;;;4934414;28;45471;-64
2022/04/06 15:05:22;;;;;;;0.17;0.17;;;25.20;40.10;;;;;;4936108;28;45621;-62
2022/04/06 15:07:48;;;;;;;0.20;0.20;;;25.20;40.00;;;;;;4927831;28;46164;-62
2022/04/06 15:10:13;;;;;;;0.20;0.20;;;25.20;40.00;;;;;;4905054;28;45520;-68
2022/04/06 15:12:39;;;;;;;0.20;0.20;;;25.20;40.10;;;;;;4933002;28;45408;-62
2022/04/06 15:15:05;;;;;;;0.22;0.22;;;25.20;40.00;;;;;;4932014;28;44722;-63
2022/04/06 15:17:31;;;;;;;0.10;0.10;;;25.20;40.00;;;;;;4942951;28;45917;-60
2022/04/06 15:19:56;;;;;;;0.10;0.10;;;25.20;40.70;;;;;;4923485;28;45214;-63
2022/04/06 15:22:22;;;;;;;0.10;0.10;;;25.20;40.00;;;;;;4932069;28;44767;-63
2022/04/06 15:24:48;;;;;;;0.10;0.10;;;25.20;40.00;;;;;;4930210;28;45399;-63
2022/04/06 15:27:13;;;;;;;0.30;0.15;;;25.20;40.00;;;;;;4934430;28;45974;-63
2022/04/06 15:29:39;;;;;;;0.35;0.10;;;25.20;40.10;;;;;;4930805;28;44797;-60
2022/04/06 15:32:06;;;;;;;0.80;0.10;;;25.20;40.10;;;;;;4928180;28;45492;-66
2022/04/06 15:37:18;;;;;;;0.10;0.10;;;25.30;40.10;;;;;;4932233;28;46218;-70
2022/04/06 15:39:45;;;;;;;0.10;0.10;;;25.20;40.00;;;;;;4932625;28;45756;-61
2022/04/06 15:42:10;;;;;;;0.35;0.10;;;25.30;40.10;;;;;;4925449;28;45164;-65
2022/04/06 15:44:36;;;;;;;0.63;0.17;;;25.20;40.10;;;;;;4920352;28;45256;-64
2022/04/06 15:47:02;;;;;;;0.10;0.10;;;25.30;40.20;;;;;;4938614;28;46108;-67
2022/04/06 15:49:27;;;;;;;0.10;0.10;;;25.30;40.10;;;;;;4926979;28;45329;-65
2022/04/06 15:51:53;;;;;;;1.95;0.10;;;25.30;40.10;;;;;;4936024;28;45333;-62
2022/04/06 15:54:18;;;;;;;0.88;0.30;;;25.30;40.10;;;;;;4934254;28;45733;-60
2022/04/06 15:56:44;;;;;;;0.77;0.43;;;25.20;39.40;;;;;;4933903;28;45091;-62
2022/04/06 15:59:09;;;;;;;3.15;0.20;;;25.20;39.70;;;;;;4931308;28;44690;-62
2022/04/06 16:01:35;;;;;;;2.10;0.30;;;25.20;40.00;;;;;;4934604;28;44812;-64
2022/04/06 16:04:01;;;;;;;0.30;0.20;;;25.10;39.90;;;;;;4938311;28;45271;-66
2022/04/06 16:06:27;;;;;;;0.30;0.13;;;25.10;40.10;;;;;;4935009;28;46894;-63
2022/04/06 16:08:52;;;;;;;0.90;0.30;;;25.00;40.10;;;;;;4933405;28;45301;-62
2022/04/06 16:11:18;;;;;;;1.63;0.40;;;24.90;40.20;;;;;;4929390;28;44958;-64
2022/04/06 16:13:43;;;;;;;0.30;0.20;;;24.90;40.30;;;;;;4933961;28;45695;-61
2022/04/06 16:16:09;;;;;;;0.55;0.32;;;24.80;40.40;;;;;;4934945;28;45205;-63
2022/04/06 16:18:35;;;;;;;0.45;0.20;;;24.80;40.50;;;;;;4931764;28;45291;-61
2022/04/06 16:21:00;;;;;;;0.80;0.20;;;24.70;40.50;;;;;;4928252;28;45403;-63
2022/04/06 16:23:26;;;;;;;0.35;0.17;;;24.70;40.50;;;;;;4931808;28;45145;-63